Time;durP1;ratioP1;P1;durP2;ratioP2;P2;SDS_P1;SDS_P2;PMS_P1;PMS_P2;Temp;Humidity;BMP_temperature;BMP_pressure;BME280_temperature;BME280_humidity;BME280_pressure;Samples;Min_cycle;Max_cycle;Signal;HPM_P1;HPM_P2
2021/12/22 00:00:56;;;;;;;53.20;27.77;;;;;;;;;;5034845;28;20957;-66
2021/12/22 00:03:23;;;;;;;49.87;26.97;;;;;;;;;;5034746;28;20511;-70
2021/12/22 00:05:50;;;;;;;50.83;25.40;;;;;;;;;;5016976;28;20434;-65
2021/12/22 00:08:17;;;;;;;58.83;27.40;;;;;;;;;;5017011;28;20424;-65
2021/12/22 00:10:44;;;;;;;58.20;28.20;;;;;;;;;;5017220;28;20502;-66
2021/12/22 00:13:10;;;;;;;54.60;27.63;;;;;;;;;;5034740;28;20432;-65
2021/12/22 00:15:36;;;;;;;54.73;28.73;;;;;;;;;;5034633;28;20424;-66
2021/12/22 00:18:02;;;;;;;50.80;27.30;;;;;;;;;;5034941;28;20206;-65
2021/12/22 00:20:28;;;;;;;48.83;27.30;;;;;;;;;;5034670;28;20409;-65
2021/12/22 00:22:55;;;;;;;50.40;27.33;;;;;;;;;;5016436;28;20439;-64
2021/12/22 00:25:25;;;;;;;56.47;27.77;;;;;;;;;;5033966;28;20229;-66
2021/12/22 00:27:51;;;;;;;46.73;26.07;;;;;;;;;;5016664;28;20454;-65
2021/12/22 00:30:17;;;;;;;55.03;26.97;;;;;;;;;;5017461;28;20782;-65
2021/12/22 00:32:50;;;;;;;51.27;25.37;;;;;;;;;;5016420;28;21062;-67
2021/12/22 00:35:18;;;;;;;42.30;24.63;;;;;;;;;;5034093;28;20390;-66
2021/12/22 00:37:44;;;;;;;45.30;24.83;;;;;;;;;;5016328;28;20421;-65
2021/12/22 00:40:11;;;;;;;49.73;26.57;;;;;;;;;;5033971;28;20417;-64
2021/12/22 00:42:37;;;;;;;50.40;25.40;;;;;;;;;;5033801;28;20284;-66
2021/12/22 00:45:04;;;;;;;48.97;25.23;;;;;;;;;;5016065;28;20504;-65
2021/12/22 00:47:30;;;;;;;49.57;26.70;;;;;;;;;;5015846;28;20418;-65
2021/12/22 00:49:57;;;;;;;49.77;26.33;;;;;;;;;;5033943;28;20408;-66
2021/12/22 00:52:23;;;;;;;50.57;26.17;;;;;;;;;;5034062;28;20477;-66
2021/12/22 00:54:49;;;;;;;45.70;25.00;;;;;;;;;;5034475;28;20415;-65
2021/12/22 00:57:16;;;;;;;49.07;26.33;;;;;;;;;;5016168;28;20498;-65
2021/12/22 00:59:42;;;;;;;46.50;24.87;;;;;;;;;;5015926;28;20410;-66
2021/12/22 01:02:09;;;;;;;51.00;25.93;;;;;;;;;;5033735;28;20425;-66
2021/12/22 01:04:36;;;;;;;48.60;24.97;;;;;;;;;;5034686;28;21030;-66
2021/12/22 01:07:03;;;;;;;50.50;25.73;;;;;;;;;;5034520;28;20420;-66
2021/12/22 01:09:29;;;;;;;47.20;25.23;;;;;;;;;;5035411;28;20417;-65
2021/12/22 01:11:55;;;;;;;45.70;26.37;;;;;;;;;;5019669;28;20479;-64
2021/12/22 01:14:22;;;;;;;42.67;24.27;;;;;;;;;;5038200;28;20421;-66
2021/12/22 01:16:50;;;;;;;51.43;26.87;;;;;;;;;;5038107;28;20414;-65
2021/12/22 01:19:22;;;;;;;46.37;25.73;;;;;;;;;;5037920;28;20905;-65
2021/12/22 01:21:55;;;;;;;49.80;26.07;;;;;;;;;;5037662;28;20472;-66
2021/12/22 01:24:29;;;;;;;46.73;26.00;;;;;;;;;;5037560;28;20402;-65
2021/12/22 01:27:03;;;;;;;46.90;25.13;;;;;;;;;;5037504;28;20867;-65
2021/12/22 01:29:30;;;;;;;48.87;24.43;;;;;;;;;;5019453;28;20477;-65
2021/12/22 01:31:57;;;;;;;45.60;24.53;;;;;;;;;;5019367;28;20470;-65
2021/12/22 01:34:23;;;;;;;48.23;25.90;;;;;;;;;;5037367;28;20889;-64
2021/12/22 01:36:49;;;;;;;43.80;23.40;;;;;;;;;;5037213;28;20888;-65
2021/12/22 01:39:15;;;;;;;46.43;25.00;;;;;;;;;;5037312;28;20416;-65
2021/12/22 01:41:41;;;;;;;48.47;26.47;;;;;;;;;;5037734;28;20205;-66
2021/12/22 01:44:09;;;;;;;45.70;24.87;;;;;;;;;;5037205;28;20599;-65
2021/12/22 01:49:10;;;;;;;41.77;24.43;;;;;;;;;;5037273;28;20453;-65
2021/12/22 01:51:36;;;;;;;43.93;23.40;;;;;;;;;;5037030;28;20471;-66
2021/12/22 01:54:05;;;;;;;48.90;25.10;;;;;;;;;;5037296;28;20770;-66
2021/12/22 01:56:33;;;;;;;53.20;23.53;;;;;;;;;;5036916;28;20774;-64
2021/12/22 01:59:00;;;;;;;44.07;24.63;;;;;;;;;;5036857;28;20930;-65
2021/12/22 02:01:27;;;;;;;48.10;26.00;;;;;;;;;;5036830;28;20462;-65
2021/12/22 02:03:54;;;;;;;42.10;23.83;;;;;;;;;;5036309;28;20986;-65
2021/12/22 02:06:20;;;;;;;44.03;23.70;;;;;;;;;;5018519;28;20418;-65
2021/12/22 02:08:46;;;;;;;43.10;23.20;;;;;;;;;;5018463;28;20493;-65
2021/12/22 02:11:17;;;;;;;46.77;25.20;;;;;;;;;;5018515;28;20467;-65
2021/12/22 02:13:47;;;;;;;43.47;24.83;;;;;;;;;;5036163;28;20410;-65
2021/12/22 02:16:15;;;;;;;46.23;24.57;;;;;;;;;;5036985;28;20404;-64
2021/12/22 02:18:47;;;;;;;43.20;24.00;;;;;;;;;;5036649;28;20409;-65
2021/12/22 02:21:13;;;;;;;44.00;24.53;;;;;;;;;;5035557;28;20871;-64
2021/12/22 02:23:42;;;;;;;43.93;24.83;;;;;;;;;;5018270;28;20426;-64
2021/12/22 02:26:13;;;;;;;45.47;25.60;;;;;;;;;;5035843;28;20420;-64
2021/12/22 02:28:44;;;;;;;55.17;27.03;;;;;;;;;;5036165;28;20915;-66
2021/12/22 02:31:14;;;;;;;43.73;25.47;;;;;;;;;;5018022;28;20529;-66
2021/12/22 02:33:43;;;;;;;46.13;25.30;;;;;;;;;;5018698;28;20439;-65
2021/12/22 02:36:21;;;;;;;44.47;25.00;;;;;;;;;;5035961;28;20477;-64
2021/12/22 02:38:49;;;;;;;44.57;25.03;;;;;;;;;;5036186;28;20445;-64
2021/12/22 02:41:16;;;;;;;41.47;23.63;;;;;;;;;;5036568;28;20414;-65
2021/12/22 02:43:46;;;;;;;43.93;24.97;;;;;;;;;;5036017;28;20492;-65
2021/12/22 02:46:12;;;;;;;42.07;23.33;;;;;;;;;;5035952;28;20481;-66
2021/12/22 02:48:38;;;;;;;40.20;23.57;;;;;;;;;;5035932;28;20929;-66
2021/12/22 02:51:05;;;;;;;46.00;24.40;;;;;;;;;;5035815;28;20811;-64
2021/12/22 02:54:20;;;;;;;46.30;25.43;;;;;;;;;;5035815;28;20410;-66
2021/12/22 03:01:38;;;;;;;45.93;24.90;;;;;;;;;;5036041;28;20401;-65
2021/12/22 03:04:11;;;;;;;42.00;24.50;;;;;;;;;;5035434;28;20406;-65
2021/12/22 03:06:53;;;;;;;40.10;23.50;;;;;;;;;;5036077;28;20828;-64
2021/12/22 03:09:23;;;;;;;40.37;23.63;;;;;;;;;;5035312;28;20946;-65
2021/12/22 03:11:50;;;;;;;41.80;23.37;;;;;;;;;;5019173;28;20480;-64
2021/12/22 03:14:16;;;;;;;38.87;22.70;;;;;;;;;;5036355;28;20578;-65
2021/12/22 03:16:42;;;;;;;43.40;22.93;;;;;;;;;;5018030;28;20419;-65
2021/12/22 03:19:10;;;;;;;40.73;23.63;;;;;;;;;;5035842;28;20415;-65
2021/12/22 03:21:36;;;;;;;44.63;23.60;;;;;;;;;;5035368;28;20436;-66
2021/12/22 03:24:02;;;;;;;46.13;23.60;;;;;;;;;;5036950;28;20968;-66
2021/12/22 03:26:29;;;;;;;45.80;25.17;;;;;;;;;;5019827;28;20532;-64
2021/12/22 03:28:55;;;;;;;39.23;23.47;;;;;;;;;;5038573;28;20418;-66
2021/12/22 03:31:21;;;;;;;40.70;22.77;;;;;;;;;;5035344;28;20467;-65
2021/12/22 03:33:47;;;;;;;38.83;22.27;;;;;;;;;;5035727;28;20409;-65
2021/12/22 03:36:13;;;;;;;41.33;23.57;;;;;;;;;;5035498;28;20661;-66
2021/12/22 03:38:39;;;;;;;47.27;24.00;;;;;;;;;;5017487;28;20472;-65
2021/12/22 03:41:06;;;;;;;40.73;22.67;;;;;;;;;;5035118;28;20427;-65
2021/12/22 03:43:32;;;;;;;43.43;24.80;;;;;;;;;;5034944;28;20420;-65
2021/12/22 03:45:58;;;;;;;38.00;22.47;;;;;;;;;;5034927;28;20886;-64
2021/12/22 03:48:25;;;;;;;42.03;23.57;;;;;;;;;;5035277;28;20412;-65
2021/12/22 03:50:52;;;;;;;37.37;21.63;;;;;;;;;;5017193;28;20187;-65
2021/12/22 03:53:18;;;;;;;42.73;22.27;;;;;;;;;;5034991;28;20449;-65
2021/12/22 03:55:44;;;;;;;46.37;23.37;;;;;;;;;;5035409;28;20443;-66
2021/12/22 03:58:10;;;;;;;43.60;22.53;;;;;;;;;;5035065;28;20461;-65
2021/12/22 04:00:39;;;;;;;40.63;23.13;;;;;;;;;;5035135;28;20201;-65
2021/12/22 04:03:05;;;;;;;43.13;21.83;;;;;;;;;;5034519;28;20493;-65
2021/12/22 04:05:31;;;;;;;35.10;20.63;;;;;;;;;;5034673;28;20983;-66
2021/12/22 04:07:57;;;;;;;35.60;20.60;;;;;;;;;;5034932;28;20489;-65
2021/12/22 04:10:25;;;;;;;33.33;20.07;;;;;;;;;;5034317;28;20445;-65
2021/12/22 04:12:52;;;;;;;39.87;21.10;;;;;;;;;;5033867;28;20218;-65
2021/12/22 04:15:19;;;;;;;33.73;20.07;;;;;;;;;;5034123;28;20416;-65
2021/12/22 04:17:45;;;;;;;36.27;21.67;;;;;;;;;;5034411;28;20456;-65
2021/12/22 04:20:11;;;;;;;40.53;22.37;;;;;;;;;;5034604;28;20410;-65
2021/12/22 04:22:38;;;;;;;41.10;21.77;;;;;;;;;;5016406;28;20771;-65
2021/12/22 04:25:05;;;;;;;37.10;21.90;;;;;;;;;;5034334;28;20491;-64
2021/12/22 04:27:31;;;;;;;41.17;22.40;;;;;;;;;;5034069;28;20417;-65
2021/12/22 04:29:57;;;;;;;39.33;22.53;;;;;;;;;;5034552;28;20502;-65
2021/12/22 04:32:23;;;;;;;39.10;21.57;;;;;;;;;;5033827;28;20210;-67
2021/12/22 04:34:49;;;;;;;40.87;23.30;;;;;;;;;;5034037;28;20987;-66
2021/12/22 04:37:15;;;;;;;46.43;24.83;;;;;;;;;;5034097;28;20445;-65
2021/12/22 04:39:41;;;;;;;41.13;22.63;;;;;;;;;;5034216;28;20176;-65
2021/12/22 04:42:07;;;;;;;42.63;25.23;;;;;;;;;;5015965;28;20204;-65
2021/12/22 04:44:34;;;;;;;47.60;24.07;;;;;;;;;;5015988;28;20186;-65
2021/12/22 04:47:00;;;;;;;43.53;25.13;;;;;;;;;;5033523;28;20773;-65
2021/12/22 04:49:26;;;;;;;43.13;22.77;;;;;;;;;;5016001;28;20443;-65
2021/12/22 04:51:54;;;;;;;40.27;23.03;;;;;;;;;;5033844;28;20475;-64
2021/12/22 04:56:52;;;;;;;39.27;23.33;;;;;;;;;;5033992;28;20397;-67
2021/12/22 04:59:18;;;;;;;45.27;24.70;;;;;;;;;;5033773;28;20400;-65
2021/12/22 05:01:44;;;;;;;46.27;25.10;;;;;;;;;;5033661;28;20442;-66
2021/12/22 05:04:10;;;;;;;42.03;24.30;;;;;;;;;;5033649;28;20184;-65
2021/12/22 05:06:37;;;;;;;44.20;25.47;;;;;;;;;;5016037;28;20187;-65
2021/12/22 05:09:03;;;;;;;36.53;22.43;;;;;;;;;;5033945;28;20976;-64
2021/12/22 05:11:29;;;;;;;41.43;24.00;;;;;;;;;;5033500;28;20475;-66
2021/12/22 05:13:55;;;;;;;45.43;24.70;;;;;;;;;;5015971;28;20416;-65
2021/12/22 05:16:21;;;;;;;34.83;21.57;;;;;;;;;;5033578;28;20185;-65
2021/12/22 05:21:17;;;;;;;41.50;22.50;;;;;;;;;;5033775;28;20186;-64
2021/12/22 05:23:43;;;;;;;38.60;23.23;;;;;;;;;;5033717;28;20905;-66
2021/12/22 05:26:09;;;;;;;38.00;21.63;;;;;;;;;;5033458;28;20410;-63
2021/12/22 05:28:35;;;;;;;38.43;22.60;;;;;;;;;;5015764;28;20221;-65
2021/12/22 05:31:01;;;;;;;40.00;24.23;;;;;;;;;;5033331;28;20201;-65
2021/12/22 05:33:27;;;;;;;39.93;23.17;;;;;;;;;;5033682;28;20665;-65
2021/12/22 05:35:52;;;;;;;39.87;23.73;;;;;;;;;;5033289;28;20265;-65
2021/12/22 05:38:19;;;;;;;39.60;22.40;;;;;;;;;;5033354;28;20183;-64
2021/12/22 05:40:44;;;;;;;36.70;21.80;;;;;;;;;;5033960;28;20410;-65
2021/12/22 05:43:10;;;;;;;36.10;22.03;;;;;;;;;;5033739;28;20437;-65
2021/12/22 05:45:36;;;;;;;37.10;22.80;;;;;;;;;;5058878;22;20256;-62
2021/12/22 05:48:02;;;;;;;38.00;21.57;;;;;;;;;;5037005;28;20177;-63
2021/12/22 05:50:28;;;;;;;35.03;20.53;;;;;;;;;;5034113;28;20231;-63
2021/12/22 05:52:54;;;;;;;36.30;22.10;;;;;;;;;;5015673;28;20467;-64
2021/12/22 05:55:20;;;;;;;36.13;20.83;;;;;;;;;;5034221;28;20943;-63
2021/12/22 05:57:46;;;;;;;36.43;21.17;;;;;;;;;;5037144;28;20174;-63
2021/12/22 06:00:12;;;;;;;32.00;19.20;;;;;;;;;;5036733;28;20491;-63
2021/12/22 06:02:38;;;;;;;37.63;21.57;;;;;;;;;;5018722;28;20414;-64
2021/12/22 06:05:05;;;;;;;34.83;21.20;;;;;;;;;;5018686;28;20967;-63
2021/12/22 06:07:31;;;;;;;29.57;19.07;;;;;;;;;;5018422;28;20190;-64
2021/12/22 06:09:56;;;;;;;30.90;19.57;;;;;;;;;;5018517;28;20413;-64
2021/12/22 06:12:22;;;;;;;33.27;18.77;;;;;;;;;;5036219;28;20212;-63
2021/12/22 06:14:49;;;;;;;36.47;18.23;;;;;;;;;;5035954;28;20203;-63
2021/12/22 06:17:15;;;;;;;34.33;18.47;;;;;;;;;;5036660;28;20182;-63
2021/12/22 06:19:41;;;;;;;33.73;18.50;;;;;;;;;;5036433;28;20404;-63
2021/12/22 06:22:07;;;;;;;31.50;18.03;;;;;;;;;;5035984;28;20427;-63
2021/12/22 06:24:33;;;;;;;35.00;19.33;;;;;;;;;;5036032;28;20436;-62
2021/12/22 06:26:59;;;;;;;30.97;19.47;;;;;;;;;;5036604;28;20816;-63
2021/12/22 06:29:25;;;;;;;40.30;20.77;;;;;;;;;;5036002;28;20228;-63
2021/12/22 06:31:51;;;;;;;32.90;20.33;;;;;;;;;;5035869;28;20461;-63
2021/12/22 06:34:17;;;;;;;31.97;20.80;;;;;;;;;;5017942;28;20422;-62
2021/12/22 06:36:43;;;;;;;32.00;19.13;;;;;;;;;;5035838;28;20562;-63
2021/12/22 06:39:09;;;;;;;33.03;18.23;;;;;;;;;;5036203;28;20250;-62
2021/12/22 06:41:36;;;;;;;28.37;17.40;;;;;;;;;;5036030;28;20257;-63
2021/12/22 06:44:02;;;;;;;30.63;16.77;;;;;;;;;;5036097;28;20917;-63
2021/12/22 06:46:28;;;;;;;27.33;15.30;;;;;;;;;;5017914;28;20456;-63
2021/12/22 06:48:54;;;;;;;31.47;16.77;;;;;;;;;;5035712;28;20410;-63
2021/12/22 06:51:20;;;;;;;32.87;16.37;;;;;;;;;;5036019;28;20808;-63
2021/12/22 06:53:46;;;;;;;36.80;20.07;;;;;;;;;;5017806;28;20624;-63
2021/12/22 06:56:12;;;;;;;41.93;21.70;;;;;;;;;;5035512;28;20436;-63
2021/12/22 06:58:38;;;;;;;31.83;17.30;;;;;;;;;;5035938;28;20190;-63
2021/12/22 07:01:04;;;;;;;33.90;19.30;;;;;;;;;;5035464;28;20192;-63
2021/12/22 07:03:30;;;;;;;24.43;15.23;;;;;;;;;;5035895;28;20189;-63
2021/12/22 07:05:56;;;;;;;33.23;17.97;;;;;;;;;;5017453;28;20215;-63
2021/12/22 07:08:22;;;;;;;39.37;21.07;;;;;;;;;;5035481;28;20185;-64
2021/12/22 07:10:48;;;;;;;33.00;18.27;;;;;;;;;;5035639;28;20187;-63
2021/12/22 07:13:14;;;;;;;23.03;14.93;;;;;;;;;;5035871;28;20455;-62
2021/12/22 07:15:43;;;;;;;19.90;11.70;;;;;;;;;;5017643;28;20260;-63
2021/12/22 07:18:10;;;;;;;18.43;11.10;;;;;;;;;;5045273;28;20408;-63
2021/12/22 07:20:36;;;;;;;24.70;13.50;;;;;;;;;;5037294;28;20417;-63
2021/12/22 07:23:02;;;;;;;19.20;12.57;;;;;;;;;;5025010;28;20424;-63
2021/12/22 07:25:28;;;;;;;17.67;11.43;;;;;;;;;;5032492;28;20212;-65
2021/12/22 07:27:54;;;;;;;16.43;11.03;;;;;;;;;;5029695;28;20442;-62
2021/12/22 07:30:20;;;;;;;18.03;12.13;;;;;;;;;;5051702;28;20419;-63
2021/12/22 07:32:46;;;;;;;12.93;9.10;;;;;;;;;;5028763;28;20200;-62
2021/12/22 07:35:19;;;;;;;14.27;9.10;;;;;;;;;;5036308;28;20423;-63
2021/12/22 07:37:52;;;;;;;18.47;8.77;;;;;;;;;;5018369;28;20836;-64
2021/12/22 07:40:19;;;;;;;12.57;8.10;;;;;;;;;;5017846;28;20426;-62
2021/12/22 07:42:45;;;;;;;13.77;8.40;;;;;;;;;;5035453;28;20417;-63
2021/12/22 07:45:12;;;;;;;13.70;8.20;;;;;;;;;;5034901;28;20458;-63
2021/12/22 07:47:38;;;;;;;12.13;8.00;;;;;;;;;;5035764;28;20413;-63
2021/12/22 07:50:05;;;;;;;12.83;7.73;;;;;;;;;;5016962;28;20406;-63
2021/12/22 07:52:31;;;;;;;16.10;8.60;;;;;;;;;;5034713;28;20462;-63
2021/12/22 07:54:57;;;;;;;12.40;9.00;;;;;;;;;;5017112;28;20507;-63
2021/12/22 07:57:24;;;;;;;13.93;8.57;;;;;;;;;;5034691;28;20590;-63
2021/12/22 07:59:49;;;;;;;15.93;8.50;;;;;;;;;;5016905;28;20416;-63
2021/12/22 08:02:16;;;;;;;14.77;8.10;;;;;;;;;;5016866;28;20422;-63
2021/12/22 08:04:42;;;;;;;13.23;7.90;;;;;;;;;;5034946;28;20261;-63
2021/12/22 08:07:08;;;;;;;14.30;7.47;;;;;;;;;;5035035;28;20752;-62
2021/12/22 08:09:34;;;;;;;11.53;7.70;;;;;;;;;;5034485;28;20501;-63
2021/12/22 08:12:04;;;;;;;11.93;7.50;;;;;;;;;;5034216;28;20573;-63
2021/12/22 08:14:31;;;;;;;10.23;7.53;;;;;;;;;;5035235;28;20429;-63
2021/12/22 08:16:57;;;;;;;12.83;7.17;;;;;;;;;;5017099;28;20430;-62
2021/12/22 08:19:23;;;;;;;10.60;6.70;;;;;;;;;;5016301;28;20902;-63
2021/12/22 08:21:49;;;;;;;12.30;7.43;;;;;;;;;;5016726;28;20655;-63
2021/12/22 08:24:15;;;;;;;10.47;7.27;;;;;;;;;;5034412;28;20747;-63
2021/12/22 08:26:41;;;;;;;10.63;6.70;;;;;;;;;;5035116;28;20179;-63
2021/12/22 08:29:07;;;;;;;10.47;6.40;;;;;;;;;;5035396;28;20410;-63
2021/12/22 08:31:33;;;;;;;11.50;6.90;;;;;;;;;;5034844;28;20983;-63
2021/12/22 08:33:59;;;;;;;12.00;6.70;;;;;;;;;;5034767;28;20550;-63
2021/12/22 08:39:10;;;;;;;9.87;6.80;;;;;;;;;;5035542;28;20849;-63
2021/12/22 08:41:37;;;;;;;8.60;7.20;;;;;;;;;;5035221;28;20414;-63
2021/12/22 08:44:05;;;;;;;14.77;9.37;;;;;;;;;;5035458;28;20687;-63
2021/12/22 08:46:32;;;;;;;9.93;7.63;;;;;;;;;;5016633;28;20430;-63
2021/12/22 08:48:58;;;;;;;15.67;10.27;;;;;;;;;;5016942;28;20429;-63
2021/12/22 08:51:25;;;;;;;11.80;7.70;;;;;;;;;;5034555;28;20515;-63
2021/12/22 08:53:52;;;;;;;10.13;6.77;;;;;;;;;;5035523;28;20418;-63
2021/12/22 08:56:17;;;;;;;11.27;6.67;;;;;;;;;;5035631;28;20487;-62
2021/12/22 08:58:43;;;;;;;10.47;5.87;;;;;;;;;;5036314;28;20441;-63
2021/12/22 09:01:09;;;;;;;10.33;7.10;;;;;;;;;;5035490;28;20183;-63
2021/12/22 09:03:35;;;;;;;11.03;7.60;;;;;;;;;;5017907;28;20191;-63
2021/12/22 09:06:01;;;;;;;9.53;7.13;;;;;;;;;;5034656;28;20959;-63
2021/12/22 09:08:27;;;;;;;23.97;11.57;;;;;;;;;;5035159;28;20181;-63
2021/12/22 09:10:53;;;;;;;14.70;7.80;;;;;;;;;;5035356;28;20176;-63
2021/12/22 09:13:20;;;;;;;9.77;6.67;;;;;;;;;;5034760;28;20879;-63
2021/12/22 09:15:46;;;;;;;13.77;6.93;;;;;;;;;;5034877;28;20203;-63
2021/12/22 09:18:12;;;;;;;12.23;6.50;;;;;;;;;;5034375;28;20920;-63
2021/12/22 09:20:38;;;;;;;10.47;7.13;;;;;;;;;;5017337;28;20420;-63
2021/12/22 09:23:04;;;;;;;8.30;6.43;;;;;;;;;;5034761;28;20258;-63
2021/12/22 09:25:30;;;;;;;10.30;6.37;;;;;;;;;;5038001;28;20206;-63
2021/12/22 09:27:58;;;;;;;10.03;6.53;;;;;;;;;;5027780;28;20206;-63
2021/12/22 09:30:24;;;;;;;8.93;6.57;;;;;;;;;;5028903;28;20183;-65
2021/12/22 09:32:50;;;;;;;7.87;6.67;;;;;;;;;;5048872;28;20483;-64
2021/12/22 09:35:16;;;;;;;11.30;7.40;;;;;;;;;;5032074;28;20243;-63
2021/12/22 09:37:42;;;;;;;10.20;7.30;;;;;;;;;;5031297;28;20177;-64
2021/12/22 09:40:09;;;;;;;8.07;6.83;;;;;;;;;;5033195;28;20485;-63
2021/12/22 09:42:35;;;;;;;12.73;7.57;;;;;;;;;;5053166;28;20424;-63
2021/12/22 09:45:02;;;;;;;8.70;7.00;;;;;;;;;;5053206;28;20455;-63
2021/12/22 09:47:36;;;;;;;9.80;6.83;;;;;;;;;;5053579;28;20167;-63
2021/12/22 09:50:11;;;;;;;10.03;7.23;;;;;;;;;;5035711;28;20406;-64
2021/12/22 09:52:38;;;;;;;10.33;7.20;;;;;;;;;;5053100;28;20463;-63
2021/12/22 09:55:05;;;;;;;12.77;6.83;;;;;;;;;;5052544;28;20452;-64
2021/12/22 09:57:31;;;;;;;8.93;6.30;;;;;;;;;;5052149;28;20450;-63
2021/12/22 09:59:58;;;;;;;12.87;7.27;;;;;;;;;;5035282;28;20859;-63
2021/12/22 10:02:27;;;;;;;12.00;7.57;;;;;;;;;;5036222;28;20432;-63
2021/12/22 10:04:53;;;;;;;9.47;7.17;;;;;;;;;;5049821;28;20517;-62
2021/12/22 10:07:24;;;;;;;16.27;7.10;;;;;;;;;;5038333;28;20451;-63
2021/12/22 10:09:50;;;;;;;12.50;7.20;;;;;;;;;;5038227;28;20159;-60
2021/12/22 10:12:17;;;;;;;9.83;7.20;;;;;;;;;;5037626;28;20464;-63
2021/12/22 10:14:47;;;;;;;11.00;7.93;;;;;;;;;;5020455;28;20324;-63
2021/12/22 10:17:25;;;;;;;11.47;7.27;;;;;;;;;;5038003;28;20417;-62
2021/12/22 10:19:53;;;;;;;9.97;6.80;;;;;;;;;;5037880;28;20513;-63
2021/12/22 10:22:19;;;;;;;10.77;7.53;;;;;;;;;;5039230;28;20543;-64
2021/12/22 10:24:46;;;;;;;9.00;7.13;;;;;;;;;;5021457;28;20477;-63
2021/12/22 10:27:19;;;;;;;10.00;7.20;;;;;;;;;;5039421;28;20178;-61
2021/12/22 10:29:45;;;;;;;8.23;6.97;;;;;;;;;;5021613;28;20410;-63
2021/12/22 10:32:13;;;;;;;10.27;7.17;;;;;;;;;;5047138;28;20538;-64
2021/12/22 10:34:59;;;;;;;9.60;7.40;;;;;;;;;;5033293;28;20203;-63
2021/12/22 10:37:34;;;;;;;11.20;7.03;;;;;;;;;;5045873;28;20410;-64
2021/12/22 10:40:00;;;;;;;10.80;6.87;;;;;;;;;;5028358;28;20425;-63
2021/12/22 10:42:39;;;;;;;11.07;7.23;;;;;;;;;;5038588;28;20414;-63
2021/12/22 10:45:13;;;;;;;12.47;7.80;;;;;;;;;;5018908;28;20604;-62
2021/12/22 10:49:14;;;;;;;10.33;7.27;;;;;;;;;;5036708;28;20406;-63
2021/12/22 10:50:32;;;;;;;11.50;7.30;;;;;;;;;;5037172;28;20939;-63
2021/12/22 10:52:58;;;;;;;10.07;7.40;;;;;;;;;;5019262;28;20466;-63
2021/12/22 10:55:24;;;;;;;12.80;8.00;;;;;;;;;;5030602;28;20933;-63
2021/12/22 10:57:50;;;;;;;8.80;7.00;;;;;;;;;;5049905;28;20410;-63
2021/12/22 11:00:17;;;;;;;11.27;7.37;;;;;;;;;;5049335;28;20410;-63
2021/12/22 11:02:50;;;;;;;11.03;7.10;;;;;;;;;;5048353;28;20553;-63
2021/12/22 11:05:18;;;;;;;9.43;7.17;;;;;;;;;;5040497;28;20425;-61
2021/12/22 11:07:44;;;;;;;10.73;6.73;;;;;;;;;;5035905;28;20417;-62
2021/12/22 11:10:26;;;;;;;9.70;7.57;;;;;;;;;;5035055;28;20418;-61
2021/12/22 11:13:06;;;;;;;9.93;7.63;;;;;;;;;;5035345;28;20268;-62
2021/12/22 11:15:40;;;;;;;10.53;7.57;;;;;;;;;;5017872;28;20524;-62
2021/12/22 11:18:10;;;;;;;9.23;7.50;;;;;;;;;;5019244;28;20417;-62
2021/12/22 11:20:36;;;;;;;8.80;6.73;;;;;;;;;;5037355;28;20960;-62
2021/12/22 11:23:11;;;;;;;9.67;7.13;;;;;;;;;;5018204;28;20445;-62
2021/12/22 11:25:39;;;;;;;11.97;8.00;;;;;;;;;;5035952;28;20513;-63
2021/12/22 11:28:05;;;;;;;10.00;7.50;;;;;;;;;;5036168;28;20418;-62
2021/12/22 11:30:31;;;;;;;15.03;8.03;;;;;;;;;;5018909;28;20513;-62
2021/12/22 11:32:58;;;;;;;10.73;7.40;;;;;;;;;;5018092;28;20484;-62
2021/12/22 11:35:25;;;;;;;9.43;7.47;;;;;;;;;;5017514;28;20863;-62
2021/12/22 11:37:51;;;;;;;8.60;6.63;;;;;;;;;;5035881;28;20409;-62
2021/12/22 11:40:18;;;;;;;12.23;7.57;;;;;;;;;;5035416;28;20410;-62
2021/12/22 11:42:44;;;;;;;9.40;6.63;;;;;;;;;;5018081;28;20424;-61
2021/12/22 11:45:18;;;;;;;8.67;7.07;;;;;;;;;;5017469;28;20473;-61
2021/12/22 11:47:45;;;;;;;10.93;7.43;;;;;;;;;;5016924;28;20416;-61
2021/12/22 11:50:19;;;;;;;8.50;7.07;;;;;;;;;;5017491;28;20413;-62
2021/12/22 11:53:06;;;;;;;8.70;7.33;;;;;;;;;;5017742;28;21032;-62
2021/12/22 11:55:41;;;;;;;14.00;7.40;;;;;;;;;;5017577;28;21025;-62
2021/12/22 11:58:18;;;;;;;10.80;6.17;;;;;;;;;;5018093;28;20681;-62
2021/12/22 12:01:09;;;;;;;9.63;6.93;;;;;;;;;;5035239;28;20413;-62
2021/12/22 12:03:40;;;;;;;9.63;7.03;;;;;;;;;;5018580;28;20186;-62
2021/12/22 12:06:06;;;;;;;13.70;6.87;;;;;;;;;;5035151;28;20512;-62
2021/12/22 12:08:51;;;;;;;8.37;6.70;;;;;;;;;;5035124;28;20410;-62
2021/12/22 12:11:22;;;;;;;11.53;6.83;;;;;;;;;;5034504;28;20693;-61
2021/12/22 12:14:01;;;;;;;12.03;7.43;;;;;;;;;;5037349;28;20387;-62
2021/12/22 12:21:58;;;;;;;12.90;7.37;;;;;;;;;;5037795;28;20916;-62
2021/12/22 12:24:30;;;;;;;9.90;6.73;;;;;;;;;;5035329;28;20175;-62
2021/12/22 12:27:00;;;;;;;8.47;6.70;;;;;;;;;;5037005;28;20187;-62
2021/12/22 12:29:45;;;;;;;7.00;6.30;;;;;;;;;;5036462;28;20187;-61
2021/12/22 12:32:31;;;;;;;8.13;6.50;;;;;;;;;;5016864;28;20216;-62
2021/12/22 12:35:15;;;;;;;8.53;7.20;;;;;;;;;;5034401;28;20214;-62
2021/12/22 12:37:56;;;;;;;10.13;7.20;;;;;;;;;;5034379;28;20261;-62
2021/12/22 12:40:22;;;;;;;8.83;7.03;;;;;;;;;;5034927;28;20406;-62
2021/12/22 12:42:58;;;;;;;9.33;6.80;;;;;;;;;;5034676;28;20210;-62
2021/12/22 12:45:42;;;;;;;11.30;7.30;;;;;;;;;;5035338;28;20291;-63
2021/12/22 12:48:24;;;;;;;10.50;7.43;;;;;;;;;;5019204;28;20651;-62
2021/12/22 12:51:09;;;;;;;12.00;7.40;;;;;;;;;;5035353;28;20473;-63
2021/12/22 12:53:42;;;;;;;9.73;7.10;;;;;;;;;;5034644;28;20449;-63
2021/12/22 12:56:09;;;;;;;10.43;7.13;;;;;;;;;;5034257;28;20677;-63
2021/12/22 12:58:51;;;;;;;9.47;7.50;;;;;;;;;;5035066;28;20410;-62
2021/12/22 13:01:17;;;;;;;7.77;6.80;;;;;;;;;;5061736;22;20717;-64
2021/12/22 13:03:47;;;;;;;11.63;7.80;;;;;;;;;;5020613;28;20183;-63
2021/12/22 13:06:13;;;;;;;8.40;7.10;;;;;;;;;;5041864;28;20175;-63
2021/12/22 13:08:39;;;;;;;11.27;7.40;;;;;;;;;;5042316;28;20183;-64
2021/12/22 13:11:12;;;;;;;7.93;6.70;;;;;;;;;;5042626;28;20231;-63
2021/12/22 13:15:46;;;;;;;11.73;7.40;;;;;;;;;;5042399;28;20643;-63
2021/12/22 13:16:40;;;;;;;10.00;7.27;;;;;;;;;;5042509;28;20205;-64
2021/12/22 13:19:05;;;;;;;9.43;6.67;;;;;;;;;;5042350;28;20181;-64
2021/12/22 13:21:31;;;;;;;10.13;7.97;;;;;;;;;;5042577;28;20223;-66
2021/12/22 13:23:57;;;;;;;11.00;6.27;;;;;;;;;;5042016;28;20187;-63
2021/12/22 13:26:23;;;;;;;11.20;7.27;;;;;;;;;;5024722;28;20183;-62
2021/12/22 13:28:49;;;;;;;11.67;6.90;;;;;;;;;;5024726;28;20269;-62
2021/12/22 13:31:15;;;;;;;12.83;7.30;;;;;;;;;;5042589;28;20283;-62
2021/12/22 13:33:45;;;;;;;11.50;6.87;;;;;;;;;;5042051;28;20249;-63
2021/12/22 13:36:14;;;;;;;10.53;7.17;;;;;;;;;;5025041;28;20183;-63
2021/12/22 13:38:58;;;;;;;8.97;7.27;;;;;;;;;;5042214;28;20697;-65
2021/12/22 13:41:27;;;;;;;9.33;7.17;;;;;;;;;;5042472;28;20266;-61
2021/12/22 13:43:53;;;;;;;12.80;7.13;;;;;;;;;;5042407;28;20229;-64
2021/12/22 13:46:25;;;;;;;10.50;6.80;;;;;;;;;;5042000;28;20187;-62
2021/12/22 13:48:56;;;;;;;9.73;7.40;;;;;;;;;;5024327;28;20187;-61
2021/12/22 13:51:22;;;;;;;9.83;7.67;;;;;;;;;;5041478;28;20207;-62
2021/12/22 13:53:48;;;;;;;10.50;7.37;;;;;;;;;;5024179;28;20430;-63
2021/12/22 13:56:16;;;;;;;12.33;8.43;;;;;;;;;;5041767;28;20574;-61
2021/12/22 13:58:44;;;;;;;10.43;6.87;;;;;;;;;;5024153;28;20175;-60
2021/12/22 14:01:15;;;;;;;12.17;7.57;;;;;;;;;;5023237;28;20218;-66
2021/12/22 14:03:42;;;;;;;8.87;6.90;;;;;;;;;;5024256;28;20452;-62
2021/12/22 14:06:09;;;;;;;11.03;7.23;;;;;;;;;;5024101;28;20422;-63
2021/12/22 14:08:35;;;;;;;10.03;7.33;;;;;;;;;;5042119;28;20498;-61
2021/12/22 14:11:01;;;;;;;12.70;8.20;;;;;;;;;;5041753;28;20291;-61
2021/12/22 14:13:28;;;;;;;9.47;7.23;;;;;;;;;;5023463;28;20532;-61
2021/12/22 14:15:54;;;;;;;11.00;7.97;;;;;;;;;;5041238;28;20414;-64
2021/12/22 14:18:21;;;;;;;8.10;6.93;;;;;;;;;;5041457;28;20414;-68
2021/12/22 14:20:47;;;;;;;12.20;7.57;;;;;;;;;;5040803;28;20426;-63
2021/12/22 14:23:13;;;;;;;12.70;7.93;;;;;;;;;;5041351;28;20844;-64
2021/12/22 14:25:39;;;;;;;10.67;7.17;;;;;;;;;;5023216;28;20282;-66
2021/12/22 14:28:17;;;;;;;11.37;7.60;;;;;;;;;;5041343;28;20201;-64
2021/12/22 14:30:43;;;;;;;12.70;8.13;;;;;;;;;;5023003;28;20453;-64
2021/12/22 14:33:12;;;;;;;12.00;7.60;;;;;;;;;;5041692;28;20211;-65
2021/12/22 14:35:40;;;;;;;15.57;8.57;;;;;;;;;;5041275;28;20171;-63
2021/12/22 14:38:07;;;;;;;10.93;8.20;;;;;;;;;;5022962;28;20418;-64
2021/12/22 14:40:39;;;;;;;10.53;8.63;;;;;;;;;;5041052;28;20199;-63
2021/12/22 14:43:12;;;;;;;12.63;7.90;;;;;;;;;;5040522;28;20175;-64
2021/12/22 14:45:38;;;;;;;13.03;8.03;;;;;;;;;;5040860;28;20417;-62
2021/12/22 14:48:14;;;;;;;12.20;7.77;;;;;;;;;;5040704;28;20839;-64
2021/12/22 14:50:42;;;;;;;12.63;7.97;;;;;;;;;;5040629;28;20282;-63
2021/12/22 14:53:11;;;;;;;13.43;8.67;;;;;;;;;;5041256;28;20457;-64